sensor_id;sensor_type;location;lat;lon;timestamp;temperature;humidity
52919;DHT22;38793;52.690;6.812;2022-12-10T00:01:21;-1.10;99.90
52919;DHT22;38793;52.690;6.812;2022-12-10T00:03:47;-1.10;99.90
52919;DHT22;38793;52.690;6.812;2022-12-10T00:06:15;-1.10;99.90
52919;DHT22;38793;52.690;6.812;2022-12-10T00:08:42;-1.10;99.90
52919;DHT22;38793;52.690;6.812;2022-12-10T00:11:10;-1.10;99.90
52919;DHT22;38793;52.690;6.812;2022-12-10T00:13:37;-1.10;99.90
52919;DHT22;38793;52.690;6.812;2022-12-10T00:16:04;-1.10;99.90
52919;DHT22;38793;52.690;6.812;2022-12-10T00:18:31;-1.00;99.90
52919;DHT22;38793;52.690;6.812;2022-12-10T00:20:57;-1.00;99.90
52919;DHT22;38793;52.690;6.812;2022-12-10T00:23:23;-1.00;99.90
52919;DHT22;38793;52.690;6.812;2022-12-10T00:25:48;-1.00;99.90
52919;DHT22;38793;52.690;6.812;2022-12-10T00:28:14;-1.00;99.90
52919;DHT22;38793;52.690;6.812;2022-12-10T00:30:39;-1.00;99.90
52919;DHT22;38793;52.690;6.812;2022-12-10T00:33:05;-1.00;99.90
52919;DHT22;38793;52.690;6.812;2022-12-10T00:35:34;-1.10;99.90
52919;DHT22;38793;52.690;6.812;2022-12-10T00:38:00;-1.10;99.90
52919;DHT22;38793;52.690;6.812;2022-12-10T00:40:25;-1.10;99.90
52919;DHT22;38793;52.690;6.812;2022-12-10T00:42:51;-1.10;99.90
52919;DHT22;38793;52.690;6.812;2022-12-10T00:45:16;-1.10;99.90
52919;DHT22;38793;52.690;6.812;2022-12-10T00:47:42;-1.10;99.90
52919;DHT22;38793;52.690;6.812;2022-12-10T00:50:08;-1.20;99.90
52919;DHT22;38793;52.690;6.812;2022-12-10T00:52:33;-1.20;99.90
52919;DHT22;38793;52.690;6.812;2022-12-10T00:54:59;-1.20;99.90
52919;DHT22;38793;52.690;6.812;2022-12-10T00:57:24;-1.20;99.90
52919;DHT22;38793;52.690;6.812;2022-12-10T00:59:50;-1.10;99.90
52919;DHT22;38793;52.690;6.812;2022-12-10T01:02:15;-1.10;99.90
52919;DHT22;38793;52.690;6.812;2022-12-10T01:04:41;-1.10;99.90
52919;DHT22;38793;52.690;6.812;2022-12-10T01:07:06;-1.10;99.90
52919;DHT22;38793;52.690;6.812;2022-12-10T01:09:32;-1.00;99.90
52919;DHT22;38793;52.690;6.812;2022-12-10T01:12:01;-1.00;99.90
52919;DHT22;38793;52.690;6.812;2022-12-10T01:14:30;-1.00;99.90
52919;DHT22;38793;52.690;6.812;2022-12-10T01:16:58;-1.00;99.90
52919;DHT22;38793;52.690;6.812;2022-12-10T01:19:24;-1.00;99.90
52919;DHT22;38793;52.690;6.812;2022-12-10T01:21:53;-1.00;99.90
52919;DHT22;38793;52.690;6.812;2022-12-10T01:24:20;-0.90;99.90
52919;DHT22;38793;52.690;6.812;2022-12-10T01:26:47;-0.90;99.90
52919;DHT22;38793;52.690;6.812;2022-12-10T01:29:12;-0.80;99.90
52919;DHT22;38793;52.690;6.812;2022-12-10T01:31:38;-0.80;99.90
52919;DHT22;38793;52.690;6.812;2022-12-10T01:34:06;-0.80;99.90
52919;DHT22;38793;52.690;6.812;2022-12-10T01:36:37;-0.80;99.90
52919;DHT22;38793;52.690;6.812;2022-12-10T01:39:06;-0.70;99.90
52919;DHT22;38793;52.690;6.812;2022-12-10T01:42:01;-0.70;99.90
52919;DHT22;38793;52.690;6.812;2022-12-10T01:46:54;-0.60;99.90
52919;DHT22;38793;52.690;6.812;2022-12-10T01:49:23;-0.60;99.90
52919;DHT22;38793;52.690;6.812;2022-12-10T01:51:54;-0.60;99.90
52919;DHT22;38793;52.690;6.812;2022-12-10T01:54:23;-0.60;99.90
52919;DHT22;38793;52.690;6.812;2022-12-10T01:57:00;-0.60;99.90
52919;DHT22;38793;52.690;6.812;2022-12-10T01:59:26;-0.60;99.90
52919;DHT22;38793;52.690;6.812;2022-12-10T02:02:01;-0.60;99.90
52919;DHT22;38793;52.690;6.812;2022-12-10T02:05:05;-0.60;99.90
52919;DHT22;38793;52.690;6.812;2022-12-10T02:10:34;-0.50;99.90
52919;DHT22;38793;52.690;6.812;2022-12-10T02:13:07;-0.50;99.90
52919;DHT22;38793;52.690;6.812;2022-12-10T02:16:19;-0.50;99.90
52919;DHT22;38793;52.690;6.812;2022-12-10T02:18:28;-0.50;99.90
52919;DHT22;38793;52.690;6.812;2022-12-10T02:20:59;-0.50;99.90
52919;DHT22;38793;52.690;6.812;2022-12-10T02:23:31;-0.50;99.90
52919;DHT22;38793;52.690;6.812;2022-12-10T02:26:09;-0.50;99.90
52919;DHT22;38793;52.690;6.812;2022-12-10T02:29:15;-0.50;99.90
52919;DHT22;38793;52.690;6.812;2022-12-10T02:31:45;-0.50;99.90
52919;DHT22;38793;52.690;6.812;2022-12-10T02:34:13;-0.50;99.90
52919;DHT22;38793;52.690;6.812;2022-12-10T02:36:43;-0.40;99.90
52919;DHT22;38793;52.690;6.812;2022-12-10T02:39:12;-0.50;99.90
52919;DHT22;38793;52.690;6.812;2022-12-10T02:41:42;-0.40;99.90
52919;DHT22;38793;52.690;6.812;2022-12-10T02:44:12;-0.50;99.90
52919;DHT22;38793;52.690;6.812;2022-12-10T02:46:40;-0.50;99.90
52919;DHT22;38793;52.690;6.812;2022-12-10T02:49:07;-0.50;99.90
52919;DHT22;38793;52.690;6.812;2022-12-10T02:51:33;-0.50;99.90
52919;DHT22;38793;52.690;6.812;2022-12-10T02:54:04;-0.60;99.90
52919;DHT22;38793;52.690;6.812;2022-12-10T02:56:34;-0.60;99.90
52919;DHT22;38793;52.690;6.812;2022-12-10T03:01:41;-0.60;99.90
52919;DHT22;38793;52.690;6.812;2022-12-10T03:04:22;-0.60;99.90
52919;DHT22;38793;52.690;6.812;2022-12-10T03:07:05;-0.70;99.90
52919;DHT22;38793;52.690;6.812;2022-12-10T03:09:49;-0.70;99.90
52919;DHT22;38793;52.690;6.812;2022-12-10T03:12:29;-0.70;99.90
52919;DHT22;38793;52.690;6.812;2022-12-10T03:15:01;-0.70;99.90
52919;DHT22;38793;52.690;6.812;2022-12-10T03:17:29;-0.70;99.90
52919;DHT22;38793;52.690;6.812;2022-12-10T03:19:56;-0.80;99.90
52919;DHT22;38793;52.690;6.812;2022-12-10T03:22:23;-0.80;99.90
52919;DHT22;38793;52.690;6.812;2022-12-10T03:24:50;-0.80;99.90
52919;DHT22;38793;52.690;6.812;2022-12-10T03:27:16;-0.80;99.90
52919;DHT22;38793;52.690;6.812;2022-12-10T03:29:49;-0.80;99.90
52919;DHT22;38793;52.690;6.812;2022-12-10T03:32:16;-0.80;99.90
52919;DHT22;38793;52.690;6.812;2022-12-10T03:34:44;-0.80;99.90
52919;DHT22;38793;52.690;6.812;2022-12-10T03:37:11;-0.90;99.90
52919;DHT22;38793;52.690;6.812;2022-12-10T03:39:37;-0.90;99.90
52919;DHT22;38793;52.690;6.812;2022-12-10T03:42:04;-0.90;99.90
52919;DHT22;38793;52.690;6.812;2022-12-10T03:44:35;-0.90;99.90
52919;DHT22;38793;52.690;6.812;2022-12-10T03:47:03;-1.00;99.90
52919;DHT22;38793;52.690;6.812;2022-12-10T03:49:29;-1.00;99.90
52919;DHT22;38793;52.690;6.812;2022-12-10T03:51:55;-1.00;99.90
52919;DHT22;38793;52.690;6.812;2022-12-10T03:54:20;-1.10;99.90
52919;DHT22;38793;52.690;6.812;2022-12-10T03:56:46;-1.10;99.90
52919;DHT22;38793;52.690;6.812;2022-12-10T03:59:12;-1.10;99.90
52919;DHT22;38793;52.690;6.812;2022-12-10T04:01:38;-1.20;99.90
52919;DHT22;38793;52.690;6.812;2022-12-10T04:04:04;-1.20;99.90
52919;DHT22;38793;52.690;6.812;2022-12-10T04:06:30;-1.20;99.90
52919;DHT22;38793;52.690;6.812;2022-12-10T04:08:56;-1.20;99.90
52919;DHT22;38793;52.690;6.812;2022-12-10T04:11:21;-1.20;99.90
52919;DHT22;38793;52.690;6.812;2022-12-10T04:13:48;-1.20;99.90
52919;DHT22;38793;52.690;6.812;2022-12-10T04:16:34;-1.30;99.90
52919;DHT22;38793;52.690;6.812;2022-12-10T04:19:05;-1.30;99.90
52919;DHT22;38793;52.690;6.812;2022-12-10T04:21:33;-1.30;99.90
52919;DHT22;38793;52.690;6.812;2022-12-10T04:24:20;-1.30;99.90
52919;DHT22;38793;52.690;6.812;2022-12-10T04:27:09;-1.30;99.90
52919;DHT22;38793;52.690;6.812;2022-12-10T04:29:35;-1.30;99.90
52919;DHT22;38793;52.690;6.812;2022-12-10T04:32:01;-1.40;99.90
52919;DHT22;38793;52.690;6.812;2022-12-10T04:34:27;-1.40;99.90
52919;DHT22;38793;52.690;6.812;2022-12-10T04:36:52;-1.40;99.90
52919;DHT22;38793;52.690;6.812;2022-12-10T04:39:18;-1.40;99.90
52919;DHT22;38793;52.690;6.812;2022-12-10T04:41:46;-1.40;99.90
52919;DHT22;38793;52.690;6.812;2022-12-10T04:44:12;-1.40;99.90
52919;DHT22;38793;52.690;6.812;2022-12-10T04:46:38;-1.40;99.90
52919;DHT22;38793;52.690;6.812;2022-12-10T04:49:04;-1.50;99.90
52919;DHT22;38793;52.690;6.812;2022-12-10T04:51:31;-1.50;99.90
52919;DHT22;38793;52.690;6.812;2022-12-10T04:53:57;-1.50;99.90
52919;DHT22;38793;52.690;6.812;2022-12-10T04:56:22;-1.50;99.90
52919;DHT22;38793;52.690;6.812;2022-12-10T04:58:48;-1.50;99.90
52919;DHT22;38793;52.690;6.812;2022-12-10T05:01:14;-1.60;99.90
52919;DHT22;38793;52.690;6.812;2022-12-10T05:03:40;-1.60;99.90
52919;DHT22;38793;52.690;6.812;2022-12-10T05:06:08;-1.60;99.90
52919;DHT22;38793;52.690;6.812;2022-12-10T05:08:35;-1.60;99.90
52919;DHT22;38793;52.690;6.812;2022-12-10T05:11:03;-1.60;99.90
52919;DHT22;38793;52.690;6.812;2022-12-10T05:13:29;-1.70;99.90
52919;DHT22;38793;52.690;6.812;2022-12-10T05:15:55;-1.70;99.90
52919;DHT22;38793;52.690;6.812;2022-12-10T05:18:21;-1.70;99.90
52919;DHT22;38793;52.690;6.812;2022-12-10T05:20:46;-1.70;99.90
52919;DHT22;38793;52.690;6.812;2022-12-10T05:23:12;-1.70;99.90
52919;DHT22;38793;52.690;6.812;2022-12-10T05:28:37;-1.70;99.90
52919;DHT22;38793;52.690;6.812;2022-12-10T05:31:04;-1.70;99.90
52919;DHT22;38793;52.690;6.812;2022-12-10T05:33:30;-1.70;99.90
52919;DHT22;38793;52.690;6.812;2022-12-10T05:35:59;-1.80;99.90
52919;DHT22;38793;52.690;6.812;2022-12-10T05:38:26;-1.80;99.90
52919;DHT22;38793;52.690;6.812;2022-12-10T05:40:52;-1.80;99.90
52919;DHT22;38793;52.690;6.812;2022-12-10T05:43:18;-1.80;99.90
52919;DHT22;38793;52.690;6.812;2022-12-10T05:45:44;-1.80;99.90
52919;DHT22;38793;52.690;6.812;2022-12-10T05:48:11;-1.80;99.90
52919;DHT22;38793;52.690;6.812;2022-12-10T05:50:37;-1.80;99.90
52919;DHT22;38793;52.690;6.812;2022-12-10T05:53:03;-1.80;99.90
52919;DHT22;38793;52.690;6.812;2022-12-10T05:55:29;-1.80;99.90
52919;DHT22;38793;52.690;6.812;2022-12-10T05:57:57;-1.90;99.90
52919;DHT22;38793;52.690;6.812;2022-12-10T06:00:22;-2.00;99.90
52919;DHT22;38793;52.690;6.812;2022-12-10T06:02:49;-2.00;99.90
52919;DHT22;38793;52.690;6.812;2022-12-10T06:05:15;-2.10;99.90
52919;DHT22;38793;52.690;6.812;2022-12-10T06:07:41;-2.10;99.90
52919;DHT22;38793;52.690;6.812;2022-12-10T06:10:07;-2.10;99.90
52919;DHT22;38793;52.690;6.812;2022-12-10T06:12:32;-2.10;99.90
52919;DHT22;38793;52.690;6.812;2022-12-10T06:15:01;-2.10;99.90
52919;DHT22;38793;52.690;6.812;2022-12-10T06:17:26;-2.10;99.90
52919;DHT22;38793;52.690;6.812;2022-12-10T06:19:52;-2.10;99.90
52919;DHT22;38793;52.690;6.812;2022-12-10T06:22:17;-2.10;99.90
52919;DHT22;38793;52.690;6.812;2022-12-10T06:24:43;-2.10;99.90
52919;DHT22;38793;52.690;6.812;2022-12-10T06:27:08;-2.10;99.90
52919;DHT22;38793;52.690;6.812;2022-12-10T06:29:34;-2.10;99.90
52919;DHT22;38793;52.690;6.812;2022-12-10T06:32:00;-2.00;99.90
52919;DHT22;38793;52.690;6.812;2022-12-10T06:34:25;-2.10;99.90
52919;DHT22;38793;52.690;6.812;2022-12-10T06:36:51;-2.00;99.90
52919;DHT22;38793;52.690;6.812;2022-12-10T06:39:16;-2.10;99.90
52919;DHT22;38793;52.690;6.812;2022-12-10T06:41:42;-2.10;99.90
52919;DHT22;38793;52.690;6.812;2022-12-10T06:44:10;-2.10;99.90
52919;DHT22;38793;52.690;6.812;2022-12-10T06:46:35;-2.10;99.90
52919;DHT22;38793;52.690;6.812;2022-12-10T06:49:01;-2.10;99.90
52919;DHT22;38793;52.690;6.812;2022-12-10T06:51:27;-2.10;99.90
52919;DHT22;38793;52.690;6.812;2022-12-10T06:53:52;-2.20;99.90
52919;DHT22;38793;52.690;6.812;2022-12-10T06:56:19;-2.20;99.90
52919;DHT22;38793;52.690;6.812;2022-12-10T06:58:45;-2.30;99.90
52919;DHT22;38793;52.690;6.812;2022-12-10T07:01:13;-2.20;99.90
52919;DHT22;38793;52.690;6.812;2022-12-10T07:03:40;-2.20;99.90
52919;DHT22;38793;52.690;6.812;2022-12-10T07:06:07;-2.20;99.90
52919;DHT22;38793;52.690;6.812;2022-12-10T07:08:33;-2.20;99.90
52919;DHT22;38793;52.690;6.812;2022-12-10T07:10:59;-2.20;99.90
52919;DHT22;38793;52.690;6.812;2022-12-10T07:13:25;-2.30;99.90
52919;DHT22;38793;52.690;6.812;2022-12-10T07:15:50;-2.20;99.90
52919;DHT22;38793;52.690;6.812;2022-12-10T07:18:16;-2.30;99.90
52919;DHT22;38793;52.690;6.812;2022-12-10T07:20:41;-2.20;99.90
52919;DHT22;38793;52.690;6.812;2022-12-10T07:23:07;-2.10;99.90
52919;DHT22;38793;52.690;6.812;2022-12-10T07:25:33;-2.20;99.90
52919;DHT22;38793;52.690;6.812;2022-12-10T07:27:59;-2.10;99.90
52919;DHT22;38793;52.690;6.812;2022-12-10T07:30:24;-2.10;99.90
52919;DHT22;38793;52.690;6.812;2022-12-10T07:32:50;-2.10;99.90
52919;DHT22;38793;52.690;6.812;2022-12-10T07:35:16;-2.00;99.90
52919;DHT22;38793;52.690;6.812;2022-12-10T07:37:41;-2.00;99.90
52919;DHT22;38793;52.690;6.812;2022-12-10T07:40:07;-2.00;99.90
52919;DHT22;38793;52.690;6.812;2022-12-10T07:42:33;-2.00;99.90
52919;DHT22;38793;52.690;6.812;2022-12-10T07:44:58;-2.00;99.90
52919;DHT22;38793;52.690;6.812;2022-12-10T07:47:24;-1.90;99.90
52919;DHT22;38793;52.690;6.812;2022-12-10T07:49:50;-1.90;99.90
52919;DHT22;38793;52.690;6.812;2022-12-10T07:52:15;-1.80;99.90
52919;DHT22;38793;52.690;6.812;2022-12-10T07:54:41;-1.70;99.90
52919;DHT22;38793;52.690;6.812;2022-12-10T07:57:06;-1.70;99.90
52919;DHT22;38793;52.690;6.812;2022-12-10T07:59:32;-1.70;99.90
52919;DHT22;38793;52.690;6.812;2022-12-10T08:01:58;-1.60;99.90
52919;DHT22;38793;52.690;6.812;2022-12-10T08:04:23;-1.60;99.90
52919;DHT22;38793;52.690;6.812;2022-12-10T08:06:49;-1.60;99.90
52919;DHT22;38793;52.690;6.812;2022-12-10T08:09:14;-1.50;99.90
52919;DHT22;38793;52.690;6.812;2022-12-10T08:11:40;-1.50;99.90
52919;DHT22;38793;52.690;6.812;2022-12-10T08:14:05;-1.50;99.90
52919;DHT22;38793;52.690;6.812;2022-12-10T08:16:31;-1.40;99.90
52919;DHT22;38793;52.690;6.812;2022-12-10T08:18:59;-1.30;99.90
52919;DHT22;38793;52.690;6.812;2022-12-10T08:21:28;-1.30;99.90
52919;DHT22;38793;52.690;6.812;2022-12-10T08:23:54;-1.30;99.90
52919;DHT22;38793;52.690;6.812;2022-12-10T08:26:25;-1.20;99.90
52919;DHT22;38793;52.690;6.812;2022-12-10T08:28:51;-1.20;99.90
52919;DHT22;38793;52.690;6.812;2022-12-10T08:31:20;-1.20;99.90
52919;DHT22;38793;52.690;6.812;2022-12-10T08:33:46;-1.10;99.90
52919;DHT22;38793;52.690;6.812;2022-12-10T08:36:14;-1.10;99.90
52919;DHT22;38793;52.690;6.812;2022-12-10T08:38:40;-1.10;99.90
52919;DHT22;38793;52.690;6.812;2022-12-10T08:41:18;-1.00;99.90
52919;DHT22;38793;52.690;6.812;2022-12-10T08:43:44;-1.00;99.90
52919;DHT22;38793;52.690;6.812;2022-12-10T08:46:11;-1.00;99.90
52919;DHT22;38793;52.690;6.812;2022-12-10T08:48:38;-0.90;99.90
52919;DHT22;38793;52.690;6.812;2022-12-10T08:51:04;-0.90;99.90
52919;DHT22;38793;52.690;6.812;2022-12-10T08:53:30;-0.90;99.90
52919;DHT22;38793;52.690;6.812;2022-12-10T08:55:55;-0.80;99.90
52919;DHT22;38793;52.690;6.812;2022-12-10T08:58:21;-0.80;99.90
52919;DHT22;38793;52.690;6.812;2022-12-10T09:00:48;-0.80;99.90
52919;DHT22;38793;52.690;6.812;2022-12-10T09:03:14;-0.80;99.90
52919;DHT22;38793;52.690;6.812;2022-12-10T09:05:41;-0.70;99.90
52919;DHT22;38793;52.690;6.812;2022-12-10T09:08:07;-0.70;99.90
52919;DHT22;38793;52.690;6.812;2022-12-10T09:10:32;-0.60;99.90
52919;DHT22;38793;52.690;6.812;2022-12-10T09:12:58;-0.60;99.90
52919;DHT22;38793;52.690;6.812;2022-12-10T09:15:23;-0.50;99.90
52919;DHT22;38793;52.690;6.812;2022-12-10T09:17:49;-0.30;99.90
52919;DHT22;38793;52.690;6.812;2022-12-10T09:20:14;-0.10;99.90
52919;DHT22;38793;52.690;6.812;2022-12-10T09:22:40;-0.10;99.90
52919;DHT22;38793;52.690;6.812;2022-12-10T09:25:07;0.00;99.90
52919;DHT22;38793;52.690;6.812;2022-12-10T09:27:35;0.00;99.90
52919;DHT22;38793;52.690;6.812;2022-12-10T09:30:02;0.10;99.90
52919;DHT22;38793;52.690;6.812;2022-12-10T09:32:27;0.30;99.90
52919;DHT22;38793;52.690;6.812;2022-12-10T09:34:53;0.90;99.90
52919;DHT22;38793;52.690;6.812;2022-12-10T09:37:19;1.30;99.90
52919;DHT22;38793;52.690;6.812;2022-12-10T09:39:45;1.70;99.90
52919;DHT22;38793;52.690;6.812;2022-12-10T09:45:20;2.00;99.90
52919;DHT22;38793;52.690;6.812;2022-12-10T09:50:26;1.90;99.90
52919;DHT22;38793;52.690;6.812;2022-12-10T09:52:54;1.70;99.90
52919;DHT22;38793;52.690;6.812;2022-12-10T09:55:34;1.50;99.90
52919;DHT22;38793;52.690;6.812;2022-12-10T09:58:04;1.40;99.90
52919;DHT22;38793;52.690;6.812;2022-12-10T10:00:34;1.10;99.90
52919;DHT22;38793;52.690;6.812;2022-12-10T10:03:01;1.00;99.90
52919;DHT22;38793;52.690;6.812;2022-12-10T10:05:37;0.90;99.90
52919;DHT22;38793;52.690;6.812;2022-12-10T10:24:23;0.50;99.90
52919;DHT22;38793;52.690;6.812;2022-12-10T10:26:57;0.40;99.90
52919;DHT22;38793;52.690;6.812;2022-12-10T10:29:25;0.40;99.90
52919;DHT22;38793;52.690;6.812;2022-12-10T10:34:39;0.40;99.90
52919;DHT22;38793;52.690;6.812;2022-12-10T10:37:04;0.40;99.90
52919;DHT22;38793;52.690;6.812;2022-12-10T10:39:32;0.40;99.90
52919;DHT22;38793;52.690;6.812;2022-12-10T10:42:08;0.40;99.90
52919;DHT22;38793;52.690;6.812;2022-12-10T10:44:36;0.40;99.90
52919;DHT22;38793;52.690;6.812;2022-12-10T10:47:24;0.40;99.90
52919;DHT22;38793;52.690;6.812;2022-12-10T10:49:50;0.40;99.90
52919;DHT22;38793;52.690;6.812;2022-12-10T10:52:16;0.40;99.90
52919;DHT22;38793;52.690;6.812;2022-12-10T10:54:44;0.40;99.90
52919;DHT22;38793;52.690;6.812;2022-12-10T10:57:23;0.40;99.90
52919;DHT22;38793;52.690;6.812;2022-12-10T10:59:51;0.30;99.90
52919;DHT22;38793;52.690;6.812;2022-12-10T11:02:28;0.30;99.90
52919;DHT22;38793;52.690;6.812;2022-12-10T11:04:55;0.20;99.90
52919;DHT22;38793;52.690;6.812;2022-12-10T11:07:36;0.20;99.90
52919;DHT22;38793;52.690;6.812;2022-12-10T11:10:04;0.20;99.90
52919;DHT22;38793;52.690;6.812;2022-12-10T11:12:40;0.20;99.90
52919;DHT22;38793;52.690;6.812;2022-12-10T11:18:01;0.10;99.90
52919;DHT22;38793;52.690;6.812;2022-12-10T11:20:31;0.10;99.90
52919;DHT22;38793;52.690;6.812;2022-12-10T11:22:59;0.00;99.90
52919;DHT22;38793;52.690;6.812;2022-12-10T11:25:43;0.00;99.90
52919;DHT22;38793;52.690;6.812;2022-12-10T11:31:27;-0.10;99.90
52919;DHT22;38793;52.690;6.812;2022-12-10T11:36:48;-0.10;99.90
52919;DHT22;38793;52.690;6.812;2022-12-10T11:39:41;-0.10;99.90
52919;DHT22;38793;52.690;6.812;2022-12-10T11:45:44;-0.20;99.90
52919;DHT22;38793;52.690;6.812;2022-12-10T11:48:27;-0.20;99.90
52919;DHT22;38793;52.690;6.812;2022-12-10T11:51:05;-0.20;99.90
52919;DHT22;38793;52.690;6.812;2022-12-10T11:54:06;-0.20;99.90
52919;DHT22;38793;52.690;6.812;2022-12-10T11:56:31;-0.20;99.90
52919;DHT22;38793;52.690;6.812;2022-12-10T11:59:27;-0.30;99.90
52919;DHT22;38793;52.690;6.812;2022-12-10T12:08:26;-0.40;99.90
52919;DHT22;38793;52.690;6.812;2022-12-10T12:11:24;-0.30;99.90
52919;DHT22;38793;52.690;6.812;2022-12-10T12:14:06;-0.30;99.90
52919;DHT22;38793;52.690;6.812;2022-12-10T12:16:42;-0.30;99.90
52919;DHT22;38793;52.690;6.812;2022-12-10T12:19:27;-0.30;99.90
52919;DHT22;38793;52.690;6.812;2022-12-10T12:21:54;-0.40;99.90
52919;DHT22;38793;52.690;6.812;2022-12-10T12:24:28;-0.40;99.90
52919;DHT22;38793;52.690;6.812;2022-12-10T12:26:58;-0.40;99.90
52919;DHT22;38793;52.690;6.812;2022-12-10T12:29:32;-0.40;99.90
52919;DHT22;38793;52.690;6.812;2022-12-10T12:32:15;-0.40;99.90
52919;DHT22;38793;52.690;6.812;2022-12-10T12:34:47;-0.40;99.90
52919;DHT22;38793;52.690;6.812;2022-12-10T12:37:17;-0.40;99.90
52919;DHT22;38793;52.690;6.812;2022-12-10T12:39:45;-0.40;99.90
52919;DHT22;38793;52.690;6.812;2022-12-10T12:42:25;-0.30;99.90
52919;DHT22;38793;52.690;6.812;2022-12-10T12:45:02;-0.40;99.90
52919;DHT22;38793;52.690;6.812;2022-12-10T12:49:56;-0.40;99.90
52919;DHT22;38793;52.690;6.812;2022-12-10T12:52:45;-0.40;99.90
52919;DHT22;38793;52.690;6.812;2022-12-10T12:55:21;-0.40;99.90
52919;DHT22;38793;52.690;6.812;2022-12-10T12:57:54;-0.40;99.90
52919;DHT22;38793;52.690;6.812;2022-12-10T13:00:22;-0.40;99.90
52919;DHT22;38793;52.690;6.812;2022-12-10T13:05:44;-0.30;99.90
52919;DHT22;38793;52.690;6.812;2022-12-10T13:08:23;-0.30;99.90
52919;DHT22;38793;52.690;6.812;2022-12-10T13:11:17;-0.30;99.90
52919;DHT22;38793;52.690;6.812;2022-12-10T13:14:15;-0.30;99.90
52919;DHT22;38793;52.690;6.812;2022-12-10T13:40:37;-0.10;99.90
52919;DHT22;38793;52.690;6.812;2022-12-10T13:46:31;-0.10;99.90
52919;DHT22;38793;52.690;6.812;2022-12-10T13:48:59;-0.10;99.90
52919;DHT22;38793;52.690;6.812;2022-12-10T13:55:05;-0.10;99.90
52919;DHT22;38793;52.690;6.812;2022-12-10T14:00:34;-0.10;99.90
52919;DHT22;38793;52.690;6.812;2022-12-10T14:03:26;-0.10;99.90
52919;DHT22;38793;52.690;6.812;2022-12-10T14:06:18;-0.10;99.90
52919;DHT22;38793;52.690;6.812;2022-12-10T14:11:37;-0.10;99.90
52919;DHT22;38793;52.690;6.812;2022-12-10T14:14:06;-0.10;99.90
52919;DHT22;38793;52.690;6.812;2022-12-10T14:16:35;-0.10;99.90
52919;DHT22;38793;52.690;6.812;2022-12-10T14:19:13;-0.10;99.90
52919;DHT22;38793;52.690;6.812;2022-12-10T14:21:42;-0.10;99.90
52919;DHT22;38793;52.690;6.812;2022-12-10T14:24:30;-0.10;99.90
52919;DHT22;38793;52.690;6.812;2022-12-10T14:27:00;-0.10;99.90
52919;DHT22;38793;52.690;6.812;2022-12-10T14:29:26;-0.10;99.90
52919;DHT22;38793;52.690;6.812;2022-12-10T14:31:52;-0.10;99.90
52919;DHT22;38793;52.690;6.812;2022-12-10T14:34:21;-0.10;99.90
52919;DHT22;38793;52.690;6.812;2022-12-10T14:36:51;-0.20;99.90
52919;DHT22;38793;52.690;6.812;2022-12-10T14:39:27;-0.20;99.90
52919;DHT22;38793;52.690;6.812;2022-12-10T14:41:56;-0.20;99.90
52919;DHT22;38793;52.690;6.812;2022-12-10T14:44:22;-0.30;99.90
52919;DHT22;38793;52.690;6.812;2022-12-10T14:46:48;-0.20;99.90
52919;DHT22;38793;52.690;6.812;2022-12-10T14:49:25;-0.20;99.90
52919;DHT22;38793;52.690;6.812;2022-12-10T14:51:51;-0.30;99.90
52919;DHT22;38793;52.690;6.812;2022-12-10T14:54:35;-0.30;99.90
52919;DHT22;38793;52.690;6.812;2022-12-10T14:57:05;-0.20;99.90
52919;DHT22;38793;52.690;6.812;2022-12-10T14:59:36;-0.20;99.90
52919;DHT22;38793;52.690;6.812;2022-12-10T15:02:22;-0.20;99.90
52919;DHT22;38793;52.690;6.812;2022-12-10T15:04:49;-0.20;99.90
52919;DHT22;38793;52.690;6.812;2022-12-10T15:07:24;-0.20;99.90
52919;DHT22;38793;52.690;6.812;2022-12-10T15:09:52;-0.20;99.90
52919;DHT22;38793;52.690;6.812;2022-12-10T15:12:41;-0.20;99.90
52919;DHT22;38793;52.690;6.812;2022-12-10T15:15:51;-0.20;99.90
52919;DHT22;38793;52.690;6.812;2022-12-10T15:18:12;-0.20;99.90
52919;DHT22;38793;52.690;6.812;2022-12-10T15:20:54;-0.20;99.90
52919;DHT22;38793;52.690;6.812;2022-12-10T15:23:31;-0.20;99.90
52919;DHT22;38793;52.690;6.812;2022-12-10T15:28:37;-0.30;99.90
52919;DHT22;38793;52.690;6.812;2022-12-10T15:34:01;-0.30;99.90
52919;DHT22;38793;52.690;6.812;2022-12-10T15:39:48;-0.40;99.90
52919;DHT22;38793;52.690;6.812;2022-12-10T15:46:57;-0.50;99.90
52919;DHT22;38793;52.690;6.812;2022-12-10T15:49:23;-0.50;99.90
52919;DHT22;38793;52.690;6.812;2022-12-10T15:51:49;-0.50;99.90
52919;DHT22;38793;52.690;6.812;2022-12-10T15:54:36;-0.50;99.90
52919;DHT22;38793;52.690;6.812;2022-12-10T15:57:21;-0.50;99.90
52919;DHT22;38793;52.690;6.812;2022-12-10T15:59:49;-0.50;99.90
52919;DHT22;38793;52.690;6.812;2022-12-10T16:02:45;-0.50;99.90
52919;DHT22;38793;52.690;6.812;2022-12-10T16:05:17;-0.50;99.90
52919;DHT22;38793;52.690;6.812;2022-12-10T16:07:44;-0.50;99.90
52919;DHT22;38793;52.690;6.812;2022-12-10T16:10:11;-0.50;99.90
52919;DHT22;38793;52.690;6.812;2022-12-10T16:12:37;-0.50;99.90
52919;DHT22;38793;52.690;6.812;2022-12-10T16:15:04;-0.50;99.90
52919;DHT22;38793;52.690;6.812;2022-12-10T16:17:30;-0.50;99.90
52919;DHT22;38793;52.690;6.812;2022-12-10T16:19:58;-0.50;99.90
52919;DHT22;38793;52.690;6.812;2022-12-10T16:22:24;-0.50;99.90
52919;DHT22;38793;52.690;6.812;2022-12-10T16:24:49;-0.50;99.90
52919;DHT22;38793;52.690;6.812;2022-12-10T16:27:15;-0.60;99.90
52919;DHT22;38793;52.690;6.812;2022-12-10T16:29:42;-0.60;99.90
52919;DHT22;38793;52.690;6.812;2022-12-10T16:32:11;-0.60;99.90
52919;DHT22;38793;52.690;6.812;2022-12-10T16:34:37;-0.60;99.90
52919;DHT22;38793;52.690;6.812;2022-12-10T16:37:03;-0.60;99.90
52919;DHT22;38793;52.690;6.812;2022-12-10T16:39:29;-0.60;99.90
52919;DHT22;38793;52.690;6.812;2022-12-10T16:41:54;-0.60;99.90
52919;DHT22;38793;52.690;6.812;2022-12-10T16:44:20;-0.60;99.90
52919;DHT22;38793;52.690;6.812;2022-12-10T16:46:46;-0.60;99.90
52919;DHT22;38793;52.690;6.812;2022-12-10T16:49:12;-0.60;99.90
52919;DHT22;38793;52.690;6.812;2022-12-10T16:51:37;-0.60;99.90
52919;DHT22;38793;52.690;6.812;2022-12-10T16:54:03;-0.60;99.90
52919;DHT22;38793;52.690;6.812;2022-12-10T16:56:30;-0.60;99.90
52919;DHT22;38793;52.690;6.812;2022-12-10T16:58:56;-0.60;99.90
52919;DHT22;38793;52.690;6.812;2022-12-10T17:01:25;-0.60;99.90
52919;DHT22;38793;52.690;6.812;2022-12-10T17:03:53;-0.60;99.90
52919;DHT22;38793;52.690;6.812;2022-12-10T17:06:19;-0.60;99.90
52919;DHT22;38793;52.690;6.812;2022-12-10T17:08:46;-0.60;99.90
52919;DHT22;38793;52.690;6.812;2022-12-10T17:11:24;-0.60;99.90
52919;DHT22;38793;52.690;6.812;2022-12-10T17:14:25;-0.50;99.90
52919;DHT22;38793;52.690;6.812;2022-12-10T17:16:52;-0.60;99.90
52919;DHT22;38793;52.690;6.812;2022-12-10T17:19:19;-0.50;99.90
52919;DHT22;38793;52.690;6.812;2022-12-10T17:21:44;-0.50;99.90
52919;DHT22;38793;52.690;6.812;2022-12-10T17:24:10;-0.50;99.90
52919;DHT22;38793;52.690;6.812;2022-12-10T17:26:41;-0.50;99.90
52919;DHT22;38793;52.690;6.812;2022-12-10T17:29:30;-0.50;99.90
52919;DHT22;38793;52.690;6.812;2022-12-10T17:31:56;-0.50;99.90
52919;DHT22;38793;52.690;6.812;2022-12-10T17:34:22;-0.50;99.90
52919;DHT22;38793;52.690;6.812;2022-12-10T17:36:50;-0.40;99.90
52919;DHT22;38793;52.690;6.812;2022-12-10T17:39:18;-0.50;99.90